sensor_id;sensor_type;location;lat;lon;timestamp;temperature;humidity
17571;DHT22;8903;52.220;20.978;2024-02-23T00:01:55;9.20;99.90
17571;DHT22;8903;52.220;20.978;2024-02-23T00:04:21;9.20;99.90
17571;DHT22;8903;52.220;20.978;2024-02-23T00:06:46;9.30;99.90
17571;DHT22;8903;52.220;20.978;2024-02-23T00:09:12;9.30;99.90
17571;DHT22;8903;52.220;20.978;2024-02-23T00:11:41;9.30;99.90
17571;DHT22;8903;52.220;20.978;2024-02-23T00:14:11;9.20;99.90
17571;DHT22;8903;52.220;20.978;2024-02-23T00:16:40;9.20;99.90
17571;DHT22;8903;52.220;20.978;2024-02-23T00:19:09;9.20;99.90
17571;DHT22;8903;52.220;20.978;2024-02-23T00:21:39;9.20;99.90
17571;DHT22;8903;52.220;20.978;2024-02-23T00:24:06;9.20;99.90
17571;DHT22;8903;52.220;20.978;2024-02-23T00:26:32;9.20;99.90
17571;DHT22;8903;52.220;20.978;2024-02-23T00:28:58;9.20;99.90
17571;DHT22;8903;52.220;20.978;2024-02-23T00:31:23;9.20;99.90
17571;DHT22;8903;52.220;20.978;2024-02-23T00:33:49;9.20;99.90
17571;DHT22;8903;52.220;20.978;2024-02-23T00:36:15;9.30;99.90
17571;DHT22;8903;52.220;20.978;2024-02-23T00:38:41;9.30;99.90
17571;DHT22;8903;52.220;20.978;2024-02-23T00:41:06;9.30;99.90
17571;DHT22;8903;52.220;20.978;2024-02-23T00:43:39;9.20;99.90
17571;DHT22;8903;52.220;20.978;2024-02-23T00:46:05;9.20;99.90
17571;DHT22;8903;52.220;20.978;2024-02-23T00:48:31;9.20;99.90
17571;DHT22;8903;52.220;20.978;2024-02-23T00:50:56;9.20;99.90
17571;DHT22;8903;52.220;20.978;2024-02-23T00:53:22;9.20;99.90
17571;DHT22;8903;52.220;20.978;2024-02-23T00:55:48;9.20;99.90
17571;DHT22;8903;52.220;20.978;2024-02-23T00:58:13;9.20;99.90
17571;DHT22;8903;52.220;20.978;2024-02-23T01:00:41;9.30;99.90
17571;DHT22;8903;52.220;20.978;2024-02-23T01:03:07;9.30;99.90
17571;DHT22;8903;52.220;20.978;2024-02-23T01:05:33;9.30;99.90
17571;DHT22;8903;52.220;20.978;2024-02-23T01:07:59;9.30;99.90
17571;DHT22;8903;52.220;20.978;2024-02-23T01:10:25;9.30;99.90
17571;DHT22;8903;52.220;20.978;2024-02-23T01:12:50;9.30;99.90
17571;DHT22;8903;52.220;20.978;2024-02-23T01:15:16;9.30;99.90
17571;DHT22;8903;52.220;20.978;2024-02-23T01:17:42;9.30;99.90
17571;DHT22;8903;52.220;20.978;2024-02-23T01:20:08;9.30;99.90
17571;DHT22;8903;52.220;20.978;2024-02-23T01:22:34;9.30;99.90
17571;DHT22;8903;52.220;20.978;2024-02-23T01:24:59;9.20;99.90
17571;DHT22;8903;52.220;20.978;2024-02-23T01:27:25;9.20;99.90
17571;DHT22;8903;52.220;20.978;2024-02-23T01:29:51;9.20;99.90
17571;DHT22;8903;52.220;20.978;2024-02-23T01:32:17;9.20;99.90
17571;DHT22;8903;52.220;20.978;2024-02-23T01:34:42;9.20;99.90
17571;DHT22;8903;52.220;20.978;2024-02-23T01:37:08;9.10;99.90
17571;DHT22;8903;52.220;20.978;2024-02-23T01:39:34;9.10;99.90
17571;DHT22;8903;52.220;20.978;2024-02-23T01:42:00;9.10;99.90
17571;DHT22;8903;52.220;20.978;2024-02-23T01:44:25;9.10;99.90
17571;DHT22;8903;52.220;20.978;2024-02-23T01:46:51;9.10;99.90
17571;DHT22;8903;52.220;20.978;2024-02-23T01:49:17;9.20;99.90
17571;DHT22;8903;52.220;20.978;2024-02-23T01:51:43;9.20;99.90
17571;DHT22;8903;52.220;20.978;2024-02-23T01:54:09;9.10;99.90
17571;DHT22;8903;52.220;20.978;2024-02-23T01:56:37;9.20;99.90
17571;DHT22;8903;52.220;20.978;2024-02-23T01:59:06;9.20;99.90
17571;DHT22;8903;52.220;20.978;2024-02-23T02:01:32;9.20;99.90
17571;DHT22;8903;52.220;20.978;2024-02-23T02:04:01;9.20;99.90
17571;DHT22;8903;52.220;20.978;2024-02-23T02:06:26;9.20;99.90
17571;DHT22;8903;52.220;20.978;2024-02-23T02:08:53;9.20;99.90
17571;DHT22;8903;52.220;20.978;2024-02-23T02:11:19;9.20;99.90
17571;DHT22;8903;52.220;20.978;2024-02-23T02:13:45;9.20;99.90
17571;DHT22;8903;52.220;20.978;2024-02-23T02:16:11;9.20;99.90
17571;DHT22;8903;52.220;20.978;2024-02-23T02:18:37;9.20;99.90
17571;DHT22;8903;52.220;20.978;2024-02-23T02:21:03;9.20;99.90
17571;DHT22;8903;52.220;20.978;2024-02-23T02:23:29;9.30;99.90
17571;DHT22;8903;52.220;20.978;2024-02-23T02:25:58;9.20;99.90
17571;DHT22;8903;52.220;20.978;2024-02-23T02:28:25;9.20;99.90
17571;DHT22;8903;52.220;20.978;2024-02-23T02:30:52;9.30;99.90
17571;DHT22;8903;52.220;20.978;2024-02-23T02:33:18;9.20;99.90
17571;DHT22;8903;52.220;20.978;2024-02-23T02:35:44;9.30;99.90
17571;DHT22;8903;52.220;20.978;2024-02-23T02:38:11;9.20;99.90
17571;DHT22;8903;52.220;20.978;2024-02-23T02:40:37;9.20;99.90
17571;DHT22;8903;52.220;20.978;2024-02-23T02:43:03;9.20;99.90
17571;DHT22;8903;52.220;20.978;2024-02-23T02:45:29;9.20;99.90
17571;DHT22;8903;52.220;20.978;2024-02-23T02:47:55;9.30;99.90
17571;DHT22;8903;52.220;20.978;2024-02-23T02:50:22;9.30;99.90
17571;DHT22;8903;52.220;20.978;2024-02-23T02:52:47;9.30;99.90
17571;DHT22;8903;52.220;20.978;2024-02-23T02:55:13;9.30;99.90
17571;DHT22;8903;52.220;20.978;2024-02-23T02:57:39;9.30;99.90
17571;DHT22;8903;52.220;20.978;2024-02-23T03:00:05;9.30;99.90
17571;DHT22;8903;52.220;20.978;2024-02-23T03:02:31;9.30;99.90
17571;DHT22;8903;52.220;20.978;2024-02-23T03:04:57;9.30;99.90
17571;DHT22;8903;52.220;20.978;2024-02-23T03:07:23;9.30;99.90
17571;DHT22;8903;52.220;20.978;2024-02-23T03:09:49;9.30;99.90
17571;DHT22;8903;52.220;20.978;2024-02-23T03:12:16;9.30;99.90
17571;DHT22;8903;52.220;20.978;2024-02-23T03:14:43;9.30;99.90
17571;DHT22;8903;52.220;20.978;2024-02-23T03:17:08;9.30;99.90
17571;DHT22;8903;52.220;20.978;2024-02-23T03:19:38;9.30;99.90
17571;DHT22;8903;52.220;20.978;2024-02-23T03:22:04;9.30;99.90
17571;DHT22;8903;52.220;20.978;2024-02-23T03:24:30;9.20;99.90
17571;DHT22;8903;52.220;20.978;2024-02-23T03:26:56;9.20;99.90
17571;DHT22;8903;52.220;20.978;2024-02-23T03:29:22;9.20;99.90
17571;DHT22;8903;52.220;20.978;2024-02-23T03:31:57;9.20;99.90
17571;DHT22;8903;52.220;20.978;2024-02-23T03:34:24;9.10;99.90
17571;DHT22;8903;52.220;20.978;2024-02-23T03:36:50;9.10;99.90
17571;DHT22;8903;52.220;20.978;2024-02-23T03:39:15;9.10;99.90
17571;DHT22;8903;52.220;20.978;2024-02-23T03:41:41;9.10;99.90
17571;DHT22;8903;52.220;20.978;2024-02-23T03:44:07;9.00;99.90
17571;DHT22;8903;52.220;20.978;2024-02-23T03:46:33;8.90;99.90
17571;DHT22;8903;52.220;20.978;2024-02-23T03:49:00;8.90;99.90
17571;DHT22;8903;52.220;20.978;2024-02-23T03:51:25;8.90;99.90
17571;DHT22;8903;52.220;20.978;2024-02-23T03:53:51;8.80;99.90
17571;DHT22;8903;52.220;20.978;2024-02-23T03:56:17;8.80;99.90
17571;DHT22;8903;52.220;20.978;2024-02-23T03:58:43;8.80;99.90
17571;DHT22;8903;52.220;20.978;2024-02-23T04:01:08;8.70;99.90
17571;DHT22;8903;52.220;20.978;2024-02-23T04:03:35;8.80;99.90
17571;DHT22;8903;52.220;20.978;2024-02-23T04:06:00;8.70;99.90
17571;DHT22;8903;52.220;20.978;2024-02-23T04:08:26;8.70;99.90
17571;DHT22;8903;52.220;20.978;2024-02-23T04:10:52;8.70;99.90
17571;DHT22;8903;52.220;20.978;2024-02-23T04:13:18;8.70;99.90
17571;DHT22;8903;52.220;20.978;2024-02-23T04:15:44;8.60;99.90
17571;DHT22;8903;52.220;20.978;2024-02-23T04:18:09;8.60;99.90
17571;DHT22;8903;52.220;20.978;2024-02-23T04:20:35;8.60;99.90
17571;DHT22;8903;52.220;20.978;2024-02-23T04:23:01;8.60;99.90
17571;DHT22;8903;52.220;20.978;2024-02-23T04:25:27;8.60;99.90
17571;DHT22;8903;52.220;20.978;2024-02-23T04:27:53;8.60;99.90
17571;DHT22;8903;52.220;20.978;2024-02-23T04:30:21;8.60;99.90
17571;DHT22;8903;52.220;20.978;2024-02-23T04:32:47;8.60;99.90
17571;DHT22;8903;52.220;20.978;2024-02-23T04:35:13;8.60;99.90
17571;DHT22;8903;52.220;20.978;2024-02-23T04:37:38;8.60;99.90
17571;DHT22;8903;52.220;20.978;2024-02-23T04:40:05;8.50;99.90
17571;DHT22;8903;52.220;20.978;2024-02-23T04:42:31;8.60;99.90
17571;DHT22;8903;52.220;20.978;2024-02-23T04:44:57;8.60;99.90
17571;DHT22;8903;52.220;20.978;2024-02-23T04:47:22;8.60;99.90
17571;DHT22;8903;52.220;20.978;2024-02-23T04:49:48;8.50;99.90
17571;DHT22;8903;52.220;20.978;2024-02-23T04:52:15;8.50;99.90
17571;DHT22;8903;52.220;20.978;2024-02-23T04:54:40;8.50;99.90
17571;DHT22;8903;52.220;20.978;2024-02-23T04:57:07;8.50;99.90
17571;DHT22;8903;52.220;20.978;2024-02-23T04:59:32;8.50;99.90
17571;DHT22;8903;52.220;20.978;2024-02-23T05:01:58;8.50;99.90
17571;DHT22;8903;52.220;20.978;2024-02-23T05:04:24;8.50;99.90
17571;DHT22;8903;52.220;20.978;2024-02-23T05:06:52;8.50;99.90
17571;DHT22;8903;52.220;20.978;2024-02-23T05:09:18;8.50;99.90
17571;DHT22;8903;52.220;20.978;2024-02-23T05:11:43;8.50;99.90
17571;DHT22;8903;52.220;20.978;2024-02-23T05:14:11;8.50;99.90
17571;DHT22;8903;52.220;20.978;2024-02-23T05:16:37;8.50;99.90
17571;DHT22;8903;52.220;20.978;2024-02-23T05:19:02;8.50;99.90
17571;DHT22;8903;52.220;20.978;2024-02-23T05:21:28;8.50;99.90
17571;DHT22;8903;52.220;20.978;2024-02-23T05:23:54;8.50;99.90
17571;DHT22;8903;52.220;20.978;2024-02-23T05:26:19;8.50;99.90
17571;DHT22;8903;52.220;20.978;2024-02-23T05:28:45;8.50;99.90
17571;DHT22;8903;52.220;20.978;2024-02-23T05:31:11;8.50;99.90
17571;DHT22;8903;52.220;20.978;2024-02-23T05:33:39;8.50;99.90
17571;DHT22;8903;52.220;20.978;2024-02-23T05:36:05;8.50;99.90
17571;DHT22;8903;52.220;20.978;2024-02-23T05:38:31;8.50;99.90
17571;DHT22;8903;52.220;20.978;2024-02-23T05:40:57;8.50;99.90
17571;DHT22;8903;52.220;20.978;2024-02-23T05:43:23;8.50;99.90
17571;DHT22;8903;52.220;20.978;2024-02-23T05:45:48;8.40;99.90
17571;DHT22;8903;52.220;20.978;2024-02-23T05:48:15;8.40;99.90
17571;DHT22;8903;52.220;20.978;2024-02-23T05:50:40;8.40;99.90
17571;DHT22;8903;52.220;20.978;2024-02-23T05:53:06;8.40;99.90
17571;DHT22;8903;52.220;20.978;2024-02-23T05:55:34;8.40;99.90
17571;DHT22;8903;52.220;20.978;2024-02-23T05:58:00;8.40;99.90
17571;DHT22;8903;52.220;20.978;2024-02-23T06:00:26;8.40;99.90
17571;DHT22;8903;52.220;20.978;2024-02-23T06:02:51;8.40;99.90
17571;DHT22;8903;52.220;20.978;2024-02-23T06:05:17;8.40;99.90
17571;DHT22;8903;52.220;20.978;2024-02-23T06:07:43;8.40;99.90
17571;DHT22;8903;52.220;20.978;2024-02-23T06:10:09;8.40;99.90
17571;DHT22;8903;52.220;20.978;2024-02-23T06:12:34;8.40;99.90
17571;DHT22;8903;52.220;20.978;2024-02-23T06:15:00;8.40;99.90
17571;DHT22;8903;52.220;20.978;2024-02-23T06:17:26;8.30;99.90
17571;DHT22;8903;52.220;20.978;2024-02-23T06:19:52;8.40;99.90
17571;DHT22;8903;52.220;20.978;2024-02-23T06:22:18;8.40;99.90
17571;DHT22;8903;52.220;20.978;2024-02-23T06:24:47;8.40;99.90
17571;DHT22;8903;52.220;20.978;2024-02-23T06:27:13;8.40;99.90
17571;DHT22;8903;52.220;20.978;2024-02-23T06:29:39;8.30;99.90
17571;DHT22;8903;52.220;20.978;2024-02-23T06:32:05;8.40;99.90
17571;DHT22;8903;52.220;20.978;2024-02-23T06:34:31;8.30;99.90
17571;DHT22;8903;52.220;20.978;2024-02-23T06:36:57;8.30;99.90
17571;DHT22;8903;52.220;20.978;2024-02-23T06:39:23;8.40;99.90
17571;DHT22;8903;52.220;20.978;2024-02-23T06:41:49;8.40;99.90
17571;DHT22;8903;52.220;20.978;2024-02-23T06:44:15;8.40;99.90
17571;DHT22;8903;52.220;20.978;2024-02-23T06:46:40;8.50;99.90
17571;DHT22;8903;52.220;20.978;2024-02-23T06:49:07;8.40;99.90
17571;DHT22;8903;52.220;20.978;2024-02-23T06:51:33;8.40;99.90
17571;DHT22;8903;52.220;20.978;2024-02-23T06:53:59;8.40;99.90
17571;DHT22;8903;52.220;20.978;2024-02-23T06:56:24;8.40;99.90
17571;DHT22;8903;52.220;20.978;2024-02-23T06:58:50;8.40;99.90
17571;DHT22;8903;52.220;20.978;2024-02-23T07:01:16;8.50;99.90
17571;DHT22;8903;52.220;20.978;2024-02-23T07:03:41;8.50;99.90
17571;DHT22;8903;52.220;20.978;2024-02-23T07:06:09;8.50;99.90
17571;DHT22;8903;52.220;20.978;2024-02-23T07:08:38;8.50;99.90
17571;DHT22;8903;52.220;20.978;2024-02-23T07:11:04;8.60;99.90
17571;DHT22;8903;52.220;20.978;2024-02-23T07:13:29;8.60;99.90
17571;DHT22;8903;52.220;20.978;2024-02-23T07:15:55;8.60;99.90
17571;DHT22;8903;52.220;20.978;2024-02-23T07:18:22;8.60;99.90
17571;DHT22;8903;52.220;20.978;2024-02-23T07:20:48;8.60;99.90
17571;DHT22;8903;52.220;20.978;2024-02-23T07:23:13;8.60;99.90
17571;DHT22;8903;52.220;20.978;2024-02-23T07:25:41;8.60;99.90
17571;DHT22;8903;52.220;20.978;2024-02-23T07:28:07;8.60;99.90
17571;DHT22;8903;52.220;20.978;2024-02-23T07:30:33;8.60;99.90
17571;DHT22;8903;52.220;20.978;2024-02-23T07:33:00;8.60;99.90
17571;DHT22;8903;52.220;20.978;2024-02-23T07:35:26;8.60;99.90
17571;DHT22;8903;52.220;20.978;2024-02-23T07:37:55;8.60;99.90
17571;DHT22;8903;52.220;20.978;2024-02-23T07:40:20;8.60;99.90
17571;DHT22;8903;52.220;20.978;2024-02-23T07:42:46;8.60;99.90
17571;DHT22;8903;52.220;20.978;2024-02-23T07:45:12;8.60;99.90
17571;DHT22;8903;52.220;20.978;2024-02-23T07:47:38;8.60;99.90
17571;DHT22;8903;52.220;20.978;2024-02-23T07:50:04;8.60;99.90
17571;DHT22;8903;52.220;20.978;2024-02-23T07:52:30;8.70;99.90
17571;DHT22;8903;52.220;20.978;2024-02-23T07:54:56;8.70;99.90
17571;DHT22;8903;52.220;20.978;2024-02-23T07:57:22;8.80;99.90
17571;DHT22;8903;52.220;20.978;2024-02-23T07:59:47;8.80;99.90
17571;DHT22;8903;52.220;20.978;2024-02-23T08:02:14;8.80;99.90
17571;DHT22;8903;52.220;20.978;2024-02-23T08:04:40;8.80;99.90
17571;DHT22;8903;52.220;20.978;2024-02-23T08:07:06;8.80;99.90
17571;DHT22;8903;52.220;20.978;2024-02-23T08:09:32;8.80;99.90
17571;DHT22;8903;52.220;20.978;2024-02-23T08:11:58;8.90;99.90
17571;DHT22;8903;52.220;20.978;2024-02-23T08:14:23;8.90;99.90
17571;DHT22;8903;52.220;20.978;2024-02-23T08:16:49;8.90;99.90
17571;DHT22;8903;52.220;20.978;2024-02-23T08:19:15;8.90;99.90
17571;DHT22;8903;52.220;20.978;2024-02-23T08:21:41;8.80;99.90
17571;DHT22;8903;52.220;20.978;2024-02-23T08:24:09;8.80;99.90
17571;DHT22;8903;52.220;20.978;2024-02-23T08:26:35;8.90;99.90
17571;DHT22;8903;52.220;20.978;2024-02-23T08:29:03;8.80;99.90
17571;DHT22;8903;52.220;20.978;2024-02-23T08:31:30;8.80;99.90
17571;DHT22;8903;52.220;20.978;2024-02-23T08:33:56;8.90;99.90
17571;DHT22;8903;52.220;20.978;2024-02-23T08:36:21;8.90;99.90
17571;DHT22;8903;52.220;20.978;2024-02-23T08:38:47;8.90;99.90
17571;DHT22;8903;52.220;20.978;2024-02-23T08:41:13;8.90;99.90
17571;DHT22;8903;52.220;20.978;2024-02-23T08:43:39;9.00;99.90
17571;DHT22;8903;52.220;20.978;2024-02-23T08:46:05;9.00;99.90
17571;DHT22;8903;52.220;20.978;2024-02-23T08:48:31;9.10;99.90
17571;DHT22;8903;52.220;20.978;2024-02-23T08:50:57;9.10;99.90
17571;DHT22;8903;52.220;20.978;2024-02-23T08:53:23;9.10;99.90
17571;DHT22;8903;52.220;20.978;2024-02-23T08:55:49;9.10;99.90
17571;DHT22;8903;52.220;20.978;2024-02-23T08:58:14;9.10;99.90
17571;DHT22;8903;52.220;20.978;2024-02-23T09:00:40;9.20;99.90
17571;DHT22;8903;52.220;20.978;2024-02-23T09:03:06;9.20;99.90
17571;DHT22;8903;52.220;20.978;2024-02-23T09:05:31;9.30;99.90
17571;DHT22;8903;52.220;20.978;2024-02-23T09:07:57;9.30;99.90
17571;DHT22;8903;52.220;20.978;2024-02-23T09:10:23;9.40;99.90
17571;DHT22;8903;52.220;20.978;2024-02-23T09:12:49;9.40;99.90
17571;DHT22;8903;52.220;20.978;2024-02-23T09:15:14;9.40;99.90
17571;DHT22;8903;52.220;20.978;2024-02-23T09:17:40;9.50;99.90
17571;DHT22;8903;52.220;20.978;2024-02-23T09:20:07;9.50;99.90
17571;DHT22;8903;52.220;20.978;2024-02-23T09:22:34;9.60;99.90
17571;DHT22;8903;52.220;20.978;2024-02-23T09:25:02;9.70;99.90
17571;DHT22;8903;52.220;20.978;2024-02-23T09:27:28;9.70;99.90
17571;DHT22;8903;52.220;20.978;2024-02-23T09:29:54;9.80;99.90
17571;DHT22;8903;52.220;20.978;2024-02-23T09:32:19;9.80;99.90
17571;DHT22;8903;52.220;20.978;2024-02-23T09:34:45;9.90;99.90
17571;DHT22;8903;52.220;20.978;2024-02-23T09:37:11;9.90;99.90
17571;DHT22;8903;52.220;20.978;2024-02-23T09:39:37;10.00;99.90
17571;DHT22;8903;52.220;20.978;2024-02-23T09:42:02;10.10;99.90
17571;DHT22;8903;52.220;20.978;2024-02-23T09:44:32;10.10;99.90
17571;DHT22;8903;52.220;20.978;2024-02-23T09:47:02;10.10;99.90
17571;DHT22;8903;52.220;20.978;2024-02-23T09:49:37;10.20;99.90
17571;DHT22;8903;52.220;20.978;2024-02-23T09:52:04;10.20;99.90
17571;DHT22;8903;52.220;20.978;2024-02-23T09:54:32;10.20;99.90
17571;DHT22;8903;52.220;20.978;2024-02-23T09:56:58;10.20;99.90
17571;DHT22;8903;52.220;20.978;2024-02-23T09:59:24;10.20;99.90
17571;DHT22;8903;52.220;20.978;2024-02-23T10:01:53;10.20;99.90
17571;DHT22;8903;52.220;20.978;2024-02-23T10:04:19;10.20;99.90
17571;DHT22;8903;52.220;20.978;2024-02-23T10:06:45;10.20;99.90
17571;DHT22;8903;52.220;20.978;2024-02-23T10:09:11;10.10;99.90
17571;DHT22;8903;52.220;20.978;2024-02-23T10:11:38;10.10;99.90
17571;DHT22;8903;52.220;20.978;2024-02-23T10:14:04;10.10;99.90
17571;DHT22;8903;52.220;20.978;2024-02-23T10:16:30;10.10;99.90
17571;DHT22;8903;52.220;20.978;2024-02-23T10:18:57;10.20;99.90
17571;DHT22;8903;52.220;20.978;2024-02-23T10:21:23;10.30;99.90
17571;DHT22;8903;52.220;20.978;2024-02-23T10:23:50;10.30;99.90
17571;DHT22;8903;52.220;20.978;2024-02-23T10:26:17;10.30;99.90
17571;DHT22;8903;52.220;20.978;2024-02-23T10:28:45;10.40;99.90
17571;DHT22;8903;52.220;20.978;2024-02-23T10:31:14;10.50;99.90
17571;DHT22;8903;52.220;20.978;2024-02-23T10:33:40;10.50;99.90
17571;DHT22;8903;52.220;20.978;2024-02-23T10:36:07;10.50;99.90
17571;DHT22;8903;52.220;20.978;2024-02-23T10:38:35;10.50;99.90
17571;DHT22;8903;52.220;20.978;2024-02-23T10:41:05;10.40;99.90
17571;DHT22;8903;52.220;20.978;2024-02-23T10:43:51;10.50;99.90
17571;DHT22;8903;52.220;20.978;2024-02-23T10:46:18;10.50;99.90
17571;DHT22;8903;52.220;20.978;2024-02-23T10:48:45;10.50;99.90
17571;DHT22;8903;52.220;20.978;2024-02-23T10:51:13;10.50;99.90
17571;DHT22;8903;52.220;20.978;2024-02-23T10:53:40;10.40;99.90
17571;DHT22;8903;52.220;20.978;2024-02-23T10:56:07;10.40;99.90
17571;DHT22;8903;52.220;20.978;2024-02-23T10:58:33;10.40;99.90
17571;DHT22;8903;52.220;20.978;2024-02-23T11:01:01;10.40;99.90
17571;DHT22;8903;52.220;20.978;2024-02-23T11:03:32;10.30;99.90
17571;DHT22;8903;52.220;20.978;2024-02-23T11:06:01;10.30;99.90
17571;DHT22;8903;52.220;20.978;2024-02-23T11:08:32;10.40;99.90
17571;DHT22;8903;52.220;20.978;2024-02-23T11:11:07;10.40;99.90
17571;DHT22;8903;52.220;20.978;2024-02-23T11:16:06;10.50;99.90
17571;DHT22;8903;52.220;20.978;2024-02-23T11:18:35;10.40;99.90
17571;DHT22;8903;52.220;20.978;2024-02-23T11:21:03;10.40;99.90
17571;DHT22;8903;52.220;20.978;2024-02-23T11:23:41;10.40;99.90
17571;DHT22;8903;52.220;20.978;2024-02-23T11:28:48;10.50;99.90
17571;DHT22;8903;52.220;20.978;2024-02-23T11:31:20;10.50;99.90
17571;DHT22;8903;52.220;20.978;2024-02-23T11:33:50;10.50;99.90
17571;DHT22;8903;52.220;20.978;2024-02-23T11:38:53;10.50;99.90
17571;DHT22;8903;52.220;20.978;2024-02-23T11:41:22;10.60;99.90
17571;DHT22;8903;52.220;20.978;2024-02-23T11:43:49;10.50;99.90
17571;DHT22;8903;52.220;20.978;2024-02-23T11:46:16;10.50;99.90
17571;DHT22;8903;52.220;20.978;2024-02-23T11:48:43;10.50;99.90
17571;DHT22;8903;52.220;20.978;2024-02-23T11:51:15;10.60;99.90
17571;DHT22;8903;52.220;20.978;2024-02-23T11:53:41;10.60;99.90
17571;DHT22;8903;52.220;20.978;2024-02-23T11:56:07;10.60;99.90
17571;DHT22;8903;52.220;20.978;2024-02-23T11:58:34;10.70;99.90
17571;DHT22;8903;52.220;20.978;2024-02-23T12:01:03;10.70;99.90
17571;DHT22;8903;52.220;20.978;2024-02-23T12:03:29;10.70;99.90
17571;DHT22;8903;52.220;20.978;2024-02-23T12:05:57;10.70;99.90
17571;DHT22;8903;52.220;20.978;2024-02-23T12:08:25;10.70;99.90
17571;DHT22;8903;52.220;20.978;2024-02-23T12:10:54;10.70;99.90
17571;DHT22;8903;52.220;20.978;2024-02-23T12:13:21;10.70;99.90
17571;DHT22;8903;52.220;20.978;2024-02-23T12:15:48;10.70;99.90
17571;DHT22;8903;52.220;20.978;2024-02-23T12:18:14;10.70;99.90
17571;DHT22;8903;52.220;20.978;2024-02-23T12:20:42;10.70;99.90
17571;DHT22;8903;52.220;20.978;2024-02-23T12:23:08;10.70;99.90
17571;DHT22;8903;52.220;20.978;2024-02-23T12:25:35;10.70;99.90
17571;DHT22;8903;52.220;20.978;2024-02-23T12:28:01;10.70;99.90
17571;DHT22;8903;52.220;20.978;2024-02-23T12:30:30;10.70;99.90
17571;DHT22;8903;52.220;20.978;2024-02-23T12:33:07;10.80;99.90
17571;DHT22;8903;52.220;20.978;2024-02-23T12:35:36;10.70;99.90
17571;DHT22;8903;52.220;20.978;2024-02-23T12:38:02;10.80;99.90
17571;DHT22;8903;52.220;20.978;2024-02-23T12:40:27;10.80;99.90
17571;DHT22;8903;52.220;20.978;2024-02-23T12:42:53;10.80;99.90
17571;DHT22;8903;52.220;20.978;2024-02-23T12:45:26;10.80;99.90
17571;DHT22;8903;52.220;20.978;2024-02-23T12:47:52;10.80;99.90
17571;DHT22;8903;52.220;20.978;2024-02-23T12:50:18;10.80;99.90
17571;DHT22;8903;52.220;20.978;2024-02-23T12:52:44;10.80;99.90
17571;DHT22;8903;52.220;20.978;2024-02-23T12:55:10;10.80;99.90
17571;DHT22;8903;52.220;20.978;2024-02-23T12:57:39;10.80;99.90
17571;DHT22;8903;52.220;20.978;2024-02-23T13:00:05;10.80;99.90
17571;DHT22;8903;52.220;20.978;2024-02-23T13:02:31;10.90;99.90
17571;DHT22;8903;52.220;20.978;2024-02-23T13:04:57;10.80;99.90
17571;DHT22;8903;52.220;20.978;2024-02-23T13:07:23;10.80;99.90
17571;DHT22;8903;52.220;20.978;2024-02-23T13:09:48;10.80;99.90
17571;DHT22;8903;52.220;20.978;2024-02-23T13:12:14;10.80;99.90
17571;DHT22;8903;52.220;20.978;2024-02-23T13:14:40;10.80;99.90
17571;DHT22;8903;52.220;20.978;2024-02-23T13:17:08;10.80;99.90
17571;DHT22;8903;52.220;20.978;2024-02-23T13:19:34;10.80;99.90
17571;DHT22;8903;52.220;20.978;2024-02-23T13:22:00;10.80;99.90
17571;DHT22;8903;52.220;20.978;2024-02-23T13:24:26;10.80;99.90
17571;DHT22;8903;52.220;20.978;2024-02-23T13:26:52;10.80;99.90
17571;DHT22;8903;52.220;20.978;2024-02-23T13:29:18;10.80;99.90
17571;DHT22;8903;52.220;20.978;2024-02-23T13:31:44;10.80;99.90
17571;DHT22;8903;52.220;20.978;2024-02-23T13:34:12;10.80;99.90
17571;DHT22;8903;52.220;20.978;2024-02-23T13:36:41;10.80;99.90
17571;DHT22;8903;52.220;20.978;2024-02-23T13:39:10;10.80;99.90
17571;DHT22;8903;52.220;20.978;2024-02-23T13:41:41;10.80;99.90
17571;DHT22;8903;52.220;20.978;2024-02-23T13:44:09;10.70;99.90
17571;DHT22;8903;52.220;20.978;2024-02-23T13:46:38;10.70;99.90
17571;DHT22;8903;52.220;20.978;2024-02-23T13:49:06;10.70;99.90
17571;DHT22;8903;52.220;20.978;2024-02-23T13:51:33;10.70;99.90
17571;DHT22;8903;52.220;20.978;2024-02-23T13:53:59;10.70;99.90
17571;DHT22;8903;52.220;20.978;2024-02-23T13:56:25;10.70;99.90
17571;DHT22;8903;52.220;20.978;2024-02-23T13:58:53;10.60;99.90
17571;DHT22;8903;52.220;20.978;2024-02-23T14:01:19;10.60;99.90
17571;DHT22;8903;52.220;20.978;2024-02-23T14:03:47;10.50;99.90
17571;DHT22;8903;52.220;20.978;2024-02-23T14:06:13;10.60;99.90
17571;DHT22;8903;52.220;20.978;2024-02-23T14:08:38;10.60;99.90
17571;DHT22;8903;52.220;20.978;2024-02-23T14:11:04;10.50;99.90
17571;DHT22;8903;52.220;20.978;2024-02-23T14:13:33;10.40;99.90
17571;DHT22;8903;52.220;20.978;2024-02-23T14:15:59;10.40;99.90
17571;DHT22;8903;52.220;20.978;2024-02-23T14:18:26;10.40;99.90
17571;DHT22;8903;52.220;20.978;2024-02-23T14:20:55;10.30;99.90
17571;DHT22;8903;52.220;20.978;2024-02-23T14:23:20;10.30;99.90
17571;DHT22;8903;52.220;20.978;2024-02-23T14:25:46;10.30;99.90
17571;DHT22;8903;52.220;20.978;2024-02-23T14:28:14;10.30;99.90
17571;DHT22;8903;52.220;20.978;2024-02-23T14:30:40;10.40;99.90
17571;DHT22;8903;52.220;20.978;2024-02-23T14:33:08;10.40;99.90
17571;DHT22;8903;52.220;20.978;2024-02-23T14:35:34;10.40;99.90
17571;DHT22;8903;52.220;20.978;2024-02-23T14:37:59;10.40;99.90
17571;DHT22;8903;52.220;20.978;2024-02-23T14:40:28;10.40;99.90
17571;DHT22;8903;52.220;20.978;2024-02-23T14:42:53;10.40;99.90
17571;DHT22;8903;52.220;20.978;2024-02-23T14:45:19;10.40;99.90
17571;DHT22;8903;52.220;20.978;2024-02-23T14:47:45;10.40;99.90
17571;DHT22;8903;52.220;20.978;2024-02-23T14:50:11;10.40;99.90
17571;DHT22;8903;52.220;20.978;2024-02-23T14:52:36;10.40;99.90
17571;DHT22;8903;52.220;20.978;2024-02-23T14:55:05;10.40;99.90
17571;DHT22;8903;52.220;20.978;2024-02-23T14:57:33;10.40;99.90
17571;DHT22;8903;52.220;20.978;2024-02-23T14:59:59;10.40;99.90
17571;DHT22;8903;52.220;20.978;2024-02-23T15:02:25;10.40;99.90
17571;DHT22;8903;52.220;20.978;2024-02-23T15:04:51;10.50;99.90
17571;DHT22;8903;52.220;20.978;2024-02-23T15:07:16;10.50;99.90
17571;DHT22;8903;52.220;20.978;2024-02-23T15:09:42;10.50;99.90
17571;DHT22;8903;52.220;20.978;2024-02-23T15:12:08;10.50;99.90
17571;DHT22;8903;52.220;20.978;2024-02-23T15:14:34;10.50;99.90
17571;DHT22;8903;52.220;20.978;2024-02-23T15:17:00;10.50;99.90
17571;DHT22;8903;52.220;20.978;2024-02-23T15:19:26;10.50;99.90
17571;DHT22;8903;52.220;20.978;2024-02-23T15:21:52;10.50;99.90
17571;DHT22;8903;52.220;20.978;2024-02-23T15:24:19;10.50;99.90
17571;DHT22;8903;52.220;20.978;2024-02-23T15:26:46;10.50;99.90
17571;DHT22;8903;52.220;20.978;2024-02-23T15:29:11;10.50;99.90
17571;DHT22;8903;52.220;20.978;2024-02-23T15:31:38;10.50;99.90
17571;DHT22;8903;52.220;20.978;2024-02-23T15:34:05;10.50;99.90
17571;DHT22;8903;52.220;20.978;2024-02-23T15:36:31;10.50;99.90
17571;DHT22;8903;52.220;20.978;2024-02-23T15:38:57;10.50;99.90
17571;DHT22;8903;52.220;20.978;2024-02-23T15:41:34;10.50;99.90
17571;DHT22;8903;52.220;20.978;2024-02-23T15:44:01;10.50;99.90